GTALO EGBM-EGBM
Flight info
| Callsign | GTALO |
|---|---|
| Flight time | 0h 3m |
| Altitude | 3000 |
| Route | EGBM DCT EGBM |
| Aircraft | C152/L-SFG/C |
Departure
| Time | 2026-04-20 15:44 |
|---|---|
| Airport | Tatenhill Airfield (EGBM) |
Arrival
| Time | 2026-04-20 15:47 |
|---|---|
| Airport | Tatenhill Airfield (EGBM) |
| Time | Latitude | Longitude | Altitude | Speed | Heading |
|---|---|---|---|---|---|
| 2026-04-20 15:32 | 52.81640 | -1.75621 | 444 ft | 0 kts | 132° |
| 2026-04-20 15:38 | 52.81633 | -1.75609 | 438 ft | 4 kts | 142° |
| 2026-04-20 15:38 | 52.81616 | -1.75602 | 445 ft | 0 kts | 193° |
| 2026-04-20 15:38 | 52.81609 | -1.75610 | 445 ft | 1 kts | 245° |
| 2026-04-20 15:38 | 52.81626 | -1.75672 | 439 ft | 13 kts | 295° |
| 2026-04-20 15:39 | 52.81669 | -1.75833 | 444 ft | 17 kts | 278° |
| 2026-04-20 15:39 | 52.81690 | -1.76056 | 437 ft | 21 kts | 280° |
| 2026-04-20 15:39 | 52.81709 | -1.76298 | 425 ft | 21 kts | 274° |
| 2026-04-20 15:39 | 52.81747 | -1.76479 | 424 ft | 13 kts | 297° |
| 2026-04-20 15:40 | 52.81749 | -1.76558 | 423 ft | 2 kts | 231° |
| 2026-04-20 15:40 | 52.81724 | -1.76593 | 429 ft | 7 kts | 204° |
| 2026-04-20 15:40 | 52.81659 | -1.76649 | 424 ft | 15 kts | 208° |
| 2026-04-20 15:40 | 52.81553 | -1.76735 | 425 ft | 15 kts | 191° |
| 2026-04-20 15:41 | 52.81465 | -1.76710 | 426 ft | 12 kts | 163° |
| 2026-04-20 15:41 | 52.81424 | -1.76706 | 428 ft | 0 kts | 166° |
| 2026-04-20 15:42 | 52.81407 | -1.76698 | 427 ft | 8 kts | 164° |
| 2026-04-20 15:42 | 52.81375 | -1.76677 | 431 ft | 2 kts | 133° |
| 2026-04-20 15:43 | 52.81372 | -1.76658 | 429 ft | 6 kts | 85° |
| 2026-04-20 15:43 | 52.81425 | -1.76367 | 434 ft | 49 kts | 74° |
| 2026-04-20 15:43 | 52.81554 | -1.75694 | 542 ft | 65 kts | 73° |
| 2026-04-20 15:43 | 52.81683 | -1.75013 | 791 ft | 60 kts | 73° |
| 2026-04-20 15:44 | 52.81997 | -1.74576 | 969 ft | 73 kts | 7° |
| 2026-04-20 15:44 | 52.82414 | -1.75129 | 1125 ft | 85 kts | 310° |
| 2026-04-20 15:44 | 52.82750 | -1.75999 | 1253 ft | 91 kts | 298° |
| 2026-04-20 15:44 | 52.82911 | -1.77026 | 1307 ft | 95 kts | 281° |
| 2026-04-20 15:45 | 52.82986 | -1.78102 | 1408 ft | 92 kts | 266° |
| 2026-04-20 15:45 | 52.82904 | -1.79176 | 1473 ft | 95 kts | 260° |
| 2026-04-20 15:45 | 52.82765 | -1.80254 | 1490 ft | 96 kts | 249° |
| 2026-04-20 15:45 | 52.82299 | -1.80846 | 1448 ft | 84 kts | 172° |
| 2026-04-20 15:46 | 52.81789 | -1.80635 | 1384 ft | 72 kts | 154° |
| 2026-04-20 15:46 | 52.81335 | -1.80382 | 1254 ft | 68 kts | 150° |
| 2026-04-20 15:46 | 52.80992 | -1.79962 | 1111 ft | 55 kts | 112° |
| 2026-04-20 15:46 | 52.80947 | -1.79357 | 941 ft | 54 kts | 87° |
| 2026-04-20 15:47 | 52.81022 | -1.78732 | 716 ft | 57 kts | 82° |
| 2026-04-20 15:47 | 52.81111 | -1.78101 | 607 ft | 56 kts | 75° |
| 2026-04-20 15:47 | 52.81225 | -1.77486 | 479 ft | 56 kts | 76° |
| 2026-04-20 15:47 | 52.81332 | -1.76886 | 427 ft | 46 kts | 75° |
| 2026-04-20 15:48 | 52.81425 | -1.76365 | 452 ft | 59 kts | 74° |
| 2026-04-20 15:48 | 52.81544 | -1.75740 | 650 ft | 56 kts | 74° |
| 2026-04-20 15:48 | 52.81716 | -1.75135 | 847 ft | 63 kts | 39° |
| 2026-04-20 15:48 | 52.82150 | -1.75312 | 1075 ft | 71 kts | 335° |
| 2026-04-20 15:49 | 52.82570 | -1.75774 | 1285 ft | 74 kts | 332° |
| 2026-04-20 15:49 | 52.82992 | -1.76237 | 1510 ft | 73 kts | 330° |
| 2026-04-20 15:49 | 52.83403 | -1.76761 | 1714 ft | 76 kts | 325° |
| 2026-04-20 15:49 | 52.83814 | -1.77386 | 1856 ft | 81 kts | 322° |
| 2026-04-20 15:50 | 52.84200 | -1.78042 | 2062 ft | 80 kts | 314° |
| 2026-04-20 15:50 | 52.84564 | -1.78801 | 2229 ft | 85 kts | 312° |
| 2026-04-20 15:50 | 52.84924 | -1.79600 | 2397 ft | 87 kts | 310° |
| 2026-04-20 15:50 | 52.85271 | -1.80435 | 2592 ft | 90 kts | 309° |
| 2026-04-20 15:51 | 52.85615 | -1.81325 | 2719 ft | 94 kts | 308° |
| 2026-04-20 15:51 | 52.85972 | -1.82226 | 2851 ft | 94 kts | 308° |
| 2026-04-20 15:51 | 52.86330 | -1.83137 | 2942 ft | 93 kts | 308° |
| 2026-04-20 15:51 | 52.86678 | -1.84055 | 2985 ft | 95 kts | 306° |
| 2026-04-20 15:52 | 52.87013 | -1.85027 | 3002 ft | 101 kts | 304° |
| 2026-04-20 15:52 | 52.87359 | -1.86048 | 2971 ft | 101 kts | 302° |
| 2026-04-20 15:52 | 52.87696 | -1.87071 | 2953 ft | 100 kts | 302° |
| 2026-04-20 15:53 | 52.88336 | -1.89094 | 2897 ft | 101 kts | 301° |
| 2026-04-20 15:53 | 52.88675 | -1.90099 | 2878 ft | 99 kts | 303° |
| 2026-04-20 15:53 | 52.89045 | -1.91054 | 2848 ft | 99 kts | 309° |
| 2026-04-20 15:53 | 52.89432 | -1.92005 | 2814 ft | 100 kts | 309° |
| 2026-04-20 15:54 | 52.89852 | -1.92895 | 2824 ft | 97 kts | 315° |
| 2026-04-20 15:54 | 52.90281 | -1.93766 | 2809 ft | 98 kts | 313° |
| 2026-04-20 15:54 | 52.90687 | -1.94675 | 2791 ft | 99 kts | 310° |
| 2026-04-20 15:54 | 52.91095 | -1.95584 | 2751 ft | 99 kts | 317° |
| 2026-04-20 15:55 | 52.91550 | -1.96437 | 2738 ft | 98 kts | 317° |
| 2026-04-20 15:55 | 52.91997 | -1.97258 | 2708 ft | 97 kts | 321° |
| 2026-04-20 15:55 | 52.92474 | -1.98048 | 2666 ft | 97 kts | 319° |
| 2026-04-20 15:55 | 52.92927 | -1.98892 | 2610 ft | 98 kts | 316° |
| 2026-04-20 15:56 | 52.93373 | -1.99746 | 2600 ft | 96 kts | 315° |
| 2026-04-20 15:56 | 52.93791 | -2.00619 | 2562 ft | 98 kts | 312° |
| 2026-04-20 15:56 | 52.94184 | -2.01524 | 2585 ft | 95 kts | 307° |
| 2026-04-20 15:56 | 52.94558 | -2.02457 | 2540 ft | 99 kts | 306° |
| 2026-04-20 15:57 | 52.94919 | -2.03399 | 2540 ft | 96 kts | 306° |
| 2026-04-20 15:57 | 52.95270 | -2.04325 | 2548 ft | 95 kts | 304° |
| 2026-04-20 15:57 | 52.95623 | -2.05255 | 2534 ft | 96 kts | 306° |
| 2026-04-20 15:57 | 52.95962 | -2.06200 | 2578 ft | 95 kts | 303° |
| 2026-04-20 15:58 | 52.96279 | -2.07131 | 2686 ft | 91 kts | 304° |
| 2026-04-20 15:58 | 52.96601 | -2.08046 | 2785 ft | 91 kts | 305° |
| 2026-04-20 15:58 | 52.96933 | -2.08916 | 2901 ft | 90 kts | 306° |
| 2026-04-20 15:58 | 52.97275 | -2.09798 | 3053 ft | 94 kts | 306° |
| 2026-04-20 15:59 | 52.97641 | -2.10729 | 3150 ft | 97 kts | 307° |
| 2026-04-20 15:59 | 52.98013 | -2.11682 | 3186 ft | 99 kts | 307° |
| 2026-04-20 15:59 | 52.98384 | -2.12642 | 3216 ft | 99 kts | 307° |
| 2026-04-20 15:59 | 52.98757 | -2.13597 | 3258 ft | 98 kts | 307° |
| 2026-04-20 16:00 | 52.99115 | -2.14569 | 3293 ft | 99 kts | 303° |
| 2026-04-20 16:00 | 52.99510 | -2.15472 | 3322 ft | 96 kts | 320° |
| 2026-04-20 16:00 | 53.00012 | -2.16222 | 3309 ft | 99 kts | 322° |
| 2026-04-20 16:00 | 53.00528 | -2.16999 | 3294 ft | 100 kts | 322° |
| 2026-04-20 16:01 | 53.01031 | -2.17766 | 3332 ft | 97 kts | 320° |
| 2026-04-20 16:01 | 53.01510 | -2.18564 | 3333 ft | 100 kts | 317° |
| 2026-04-20 16:01 | 53.02004 | -2.19407 | 3303 ft | 103 kts | 319° |
| 2026-04-20 16:01 | 53.02512 | -2.20259 | 3281 ft | 105 kts | 317° |
| 2026-04-20 16:02 | 53.02980 | -2.21139 | 3310 ft | 100 kts | 313° |
| 2026-04-20 16:02 | 53.03421 | -2.22009 | 3335 ft | 97 kts | 311° |
| 2026-04-20 16:02 | 53.03829 | -2.22895 | 3357 ft | 96 kts | 310° |
| 2026-04-20 16:02 | 53.04236 | -2.23794 | 3374 ft | 98 kts | 309° |
| 2026-04-20 16:03 | 53.04625 | -2.24715 | 3436 ft | 95 kts | 305° |
| 2026-04-20 16:03 | 53.04990 | -2.25657 | 3441 ft | 98 kts | 306° |
| 2026-04-20 16:03 | 53.05364 | -2.26586 | 3482 ft | 97 kts | 305° |
| 2026-04-20 16:03 | 53.05743 | -2.27527 | 3504 ft | 97 kts | 306° |
| 2026-04-20 16:04 | 53.06118 | -2.28444 | 3526 ft | 98 kts | 306° |
| 2026-04-20 16:04 | 53.06493 | -2.29362 | 3557 ft | 95 kts | 306° |
| 2026-04-20 16:04 | 53.06826 | -2.30261 | 3639 ft | 90 kts | 303° |
| 2026-04-20 16:04 | 53.07141 | -2.31185 | 3651 ft | 94 kts | 304° |
| 2026-04-20 16:05 | 53.07405 | -2.31754 | 3670 ft | 93 kts | 323° |
| 2026-04-20 16:05 | 53.08195 | -2.32350 | 3630 ft | 96 kts | 346° |
| 2026-04-20 16:05 | 53.08824 | -2.32636 | 3651 ft | 93 kts | 351° |
| 2026-04-20 16:05 | 53.09462 | -2.32892 | 3636 ft | 95 kts | 351° |
| 2026-04-20 16:06 | 53.09891 | -2.33058 | 3652 ft | 94 kts | 352° |
| 2026-04-20 16:06 | 53.10523 | -2.33310 | 3683 ft | 92 kts | 348° |
| 2026-04-20 16:06 | 53.11351 | -2.33737 | 3676 ft | 95 kts | 347° |
| 2026-04-20 16:06 | 53.11775 | -2.33986 | 3664 ft | 96 kts | 345° |
| 2026-04-20 16:07 | 53.12401 | -2.34395 | 3617 ft | 99 kts | 343° |
| 2026-04-20 16:07 | 53.13065 | -2.34836 | 3506 ft | 103 kts | 342° |
| 2026-04-20 16:07 | 53.13707 | -2.35310 | 3482 ft | 99 kts | 340° |
| 2026-04-20 16:07 | 53.14334 | -2.35797 | 3424 ft | 100 kts | 340° |
| 2026-04-20 16:08 | 53.14968 | -2.36278 | 3382 ft | 99 kts | 341° |
| 2026-04-20 16:08 | 53.15600 | -2.36734 | 3315 ft | 99 kts | 341° |
| 2026-04-20 16:08 | 53.16239 | -2.37142 | 3292 ft | 98 kts | 344° |
| 2026-04-20 16:08 | 53.16883 | -2.37528 | 3280 ft | 97 kts | 345° |
| 2026-04-20 16:09 | 53.17525 | -2.37880 | 3253 ft | 97 kts | 348° |
| 2026-04-20 16:09 | 53.18171 | -2.38205 | 3194 ft | 100 kts | 349° |
| 2026-04-20 16:09 | 53.18840 | -2.38527 | 3143 ft | 99 kts | 349° |
| 2026-04-20 16:09 | 53.19505 | -2.38819 | 3104 ft | 100 kts | 351° |
| 2026-04-20 16:10 | 53.20185 | -2.39109 | 3045 ft | 101 kts | 351° |
| 2026-04-20 16:10 | 53.20870 | -2.39377 | 2963 ft | 101 kts | 353° |
| 2026-04-20 16:10 | 53.21568 | -2.39595 | 2850 ft | 102 kts | 354° |
| 2026-04-20 16:10 | 53.22015 | -2.40345 | 2870 ft | 101 kts | 266° |
| 2026-04-20 16:11 | 53.21589 | -2.41105 | 2864 ft | 91 kts | 183° |
| 2026-04-20 16:11 | 53.21101 | -2.40607 | 2779 ft | 89 kts | 104° |
| 2026-04-20 16:11 | 53.21326 | -2.39737 | 2752 ft | 93 kts | 41° |
| 2026-04-20 16:11 | 53.21977 | -2.39537 | 2589 ft | 107 kts | 348° |
| 2026-04-20 16:12 | 53.22671 | -2.39991 | 2488 ft | 107 kts | 352° |
| 2026-04-20 16:12 | 53.23411 | -2.40248 | 2300 ft | 110 kts | 356° |
| 2026-04-20 16:12 | 53.24161 | -2.40349 | 2095 ft | 106 kts | 4° |
| 2026-04-20 16:12 | 53.24894 | -2.40347 | 1839 ft | 103 kts | 7° |
| 2026-04-20 16:13 | 53.25603 | -2.40287 | 1586 ft | 102 kts | 9° |
| 2026-04-20 16:13 | 53.26289 | -2.40194 | 1476 ft | 96 kts | 11° |
| 2026-04-20 16:13 | 53.26950 | -2.40084 | 1406 ft | 94 kts | 12° |
| 2026-04-20 16:13 | 53.27584 | -2.39940 | 1390 ft | 93 kts | 13° |
| 2026-04-20 16:14 | 53.28212 | -2.39731 | 1363 ft | 92 kts | 16° |
| 2026-04-20 16:14 | 53.28819 | -2.39480 | 1338 ft | 88 kts | 23° |
| 2026-04-20 16:14 | 53.29315 | -2.38962 | 1304 ft | 84 kts | 48° |
| 2026-04-20 16:14 | 53.29721 | -2.38270 | 1222 ft | 83 kts | 53° |
| 2026-04-20 16:15 | 53.30089 | -2.37530 | 1165 ft | 83 kts | 57° |
| 2026-04-20 16:15 | 53.30455 | -2.36796 | 1100 ft | 82 kts | 54° |
| 2026-04-20 16:15 | 53.30809 | -2.36030 | 1001 ft | 83 kts | 57° |
| 2026-04-20 16:15 | 53.31169 | -2.35266 | 899 ft | 84 kts | 54° |
| 2026-04-20 16:16 | 53.31532 | -2.34527 | 790 ft | 76 kts | 58° |
| 2026-04-20 16:16 | 53.31841 | -2.33888 | 702 ft | 69 kts | 56° |
| 2026-04-20 16:16 | 53.32125 | -2.33304 | 606 ft | 63 kts | 57° |
| 2026-04-20 16:16 | 53.32395 | -2.32725 | 495 ft | 65 kts | 52° |
| 2026-04-20 16:17 | 53.32682 | -2.32132 | 404 ft | 65 kts | 54° |
| 2026-04-20 16:17 | 53.32962 | -2.31557 | 322 ft | 63 kts | 54° |
| 2026-04-20 16:17 | 53.33233 | -2.30996 | 237 ft | 62 kts | 54° |
| 2026-04-20 16:17 | 53.33492 | -2.30458 | 208 ft | 57 kts | 54° |
| 2026-04-20 16:18 | 53.33721 | -2.29979 | 193 ft | 44 kts | 52° |
| 2026-04-20 16:18 | 53.33935 | -2.29539 | 196 ft | 66 kts | 51° |
| 2026-04-20 16:18 | 53.34237 | -2.28933 | 382 ft | 68 kts | 53° |
| 2026-04-20 16:18 | 53.34189 | -2.28234 | 525 ft | 73 kts | 145° |
| 2026-04-20 16:19 | 53.33678 | -2.28020 | 674 ft | 76 kts | 168° |
| 2026-04-20 16:19 | 53.33176 | -2.27862 | 912 ft | 70 kts | 162° |
| 2026-04-20 16:19 | 53.32727 | -2.27568 | 1122 ft | 76 kts | 150° |
| 2026-04-20 16:19 | 53.32229 | -2.27201 | 1247 ft | 76 kts | 152° |
| 2026-04-20 16:20 | 53.31718 | -2.27064 | 1357 ft | 81 kts | 199° |
| 2026-04-20 16:20 | 53.31441 | -2.27981 | 1342 ft | 92 kts | 239° |
| 2026-04-20 16:20 | 53.31122 | -2.28919 | 1357 ft | 94 kts | 236° |
| 2026-04-20 16:20 | 53.30774 | -2.29839 | 1346 ft | 92 kts | 227° |
| 2026-04-20 16:21 | 53.30358 | -2.30654 | 1326 ft | 93 kts | 224° |
| 2026-04-20 16:21 | 53.29955 | -2.31515 | 1322 ft | 94 kts | 241° |
| 2026-04-20 16:21 | 53.30162 | -2.32426 | 1283 ft | 94 kts | 330° |
| 2026-04-20 16:21 | 53.30744 | -2.33000 | 1134 ft | 99 kts | 335° |
| 2026-04-20 16:22 | 53.31353 | -2.33523 | 949 ft | 94 kts | 341° |
| 2026-04-20 16:22 | 53.31854 | -2.33601 | 832 ft | 68 kts | 34° |
| 2026-04-20 16:22 | 53.32198 | -2.33127 | 648 ft | 63 kts | 53° |
| 2026-04-20 16:22 | 53.32463 | -2.32579 | 500 ft | 61 kts | 56° |
| 2026-04-20 16:23 | 53.32740 | -2.32014 | 397 ft | 63 kts | 54° |
| 2026-04-20 16:23 | 53.33010 | -2.31451 | 303 ft | 60 kts | 53° |
| 2026-04-20 16:23 | 53.33271 | -2.30913 | 216 ft | 59 kts | 55° |
| 2026-04-20 16:23 | 53.33521 | -2.30399 | 197 ft | 53 kts | 56° |
| 2026-04-20 16:24 | 53.33747 | -2.29933 | 197 ft | 53 kts | 56° |
| 2026-04-20 16:24 | 53.33977 | -2.29452 | 203 ft | 48 kts | 49° |
| 2026-04-20 16:24 | 53.34241 | -2.28921 | 307 ft | 65 kts | 52° |
| 2026-04-20 16:24 | 53.34520 | -2.28334 | 506 ft | 65 kts | 54° |
| 2026-04-20 16:25 | 53.34600 | -2.27687 | 685 ft | 68 kts | 128° |
| 2026-04-20 16:25 | 53.34119 | -2.27361 | 790 ft | 78 kts | 155° |
| 2026-04-20 16:25 | 53.33608 | -2.27230 | 950 ft | 75 kts | 193° |
| 2026-04-20 16:25 | 53.33260 | -2.27937 | 1039 ft | 86 kts | 236° |
| 2026-04-20 16:26 | 53.32940 | -2.28828 | 1122 ft | 91 kts | 237° |
| 2026-04-20 16:26 | 53.32616 | -2.29738 | 1170 ft | 90 kts | 235° |
| 2026-04-20 16:26 | 53.32303 | -2.30635 | 1209 ft | 91 kts | 234° |
| 2026-04-20 16:26 | 53.32073 | -2.31557 | 1232 ft | 83 kts | 280° |
| 2026-04-20 16:27 | 53.32494 | -2.32140 | 1034 ft | 82 kts | 5° |
| 2026-04-20 16:27 | 53.32916 | -2.31648 | 656 ft | 75 kts | 55° |
| 2026-04-20 16:27 | 53.33228 | -2.30991 | 297 ft | 69 kts | 56° |
| 2026-04-20 16:27 | 53.33488 | -2.30453 | 189 ft | 45 kts | 53° |
| 2026-04-20 16:28 | 53.33741 | -2.29943 | 227 ft | 68 kts | 52° |
| 2026-04-20 16:28 | 53.34045 | -2.29320 | 409 ft | 67 kts | 57° |
| 2026-04-20 16:28 | 53.33987 | -2.28627 | 603 ft | 69 kts | 137° |
| 2026-04-20 16:28 | 53.33634 | -2.28125 | 805 ft | 66 kts | 135° |
| 2026-04-20 16:29 | 53.33252 | -2.27732 | 978 ft | 71 kts | 179° |
| 2026-04-20 16:29 | 53.32948 | -2.28472 | 1018 ft | 88 kts | 239° |
| 2026-04-20 16:29 | 53.32606 | -2.29317 | 1083 ft | 88 kts | 231° |
| 2026-04-20 16:29 | 53.32270 | -2.30138 | 1179 ft | 85 kts | 232° |
| 2026-04-20 16:30 | 53.31956 | -2.30974 | 1290 ft | 85 kts | 234° |
| 2026-04-20 16:30 | 53.31628 | -2.31813 | 1292 ft | 88 kts | 233° |
| 2026-04-20 16:30 | 53.31282 | -2.32679 | 1310 ft | 89 kts | 231° |
| 2026-04-20 16:30 | 53.30931 | -2.33519 | 1360 ft | 88 kts | 232° |
| 2026-04-20 16:31 | 53.30573 | -2.34369 | 1377 ft | 89 kts | 233° |
| 2026-04-20 16:31 | 53.30224 | -2.35222 | 1358 ft | 89 kts | 232° |
| 2026-04-20 16:31 | 53.29958 | -2.36111 | 1419 ft | 81 kts | 272° |
| 2026-04-20 16:31 | 53.30316 | -2.36921 | 1367 ft | 96 kts | 321° |
| 2026-04-20 16:32 | 53.30851 | -2.36995 | 1345 ft | 84 kts | 54° |
| 2026-04-20 16:32 | 53.31209 | -2.36197 | 1176 ft | 89 kts | 53° |
| 2026-04-20 16:32 | 53.31588 | -2.35377 | 1126 ft | 90 kts | 57° |
| 2026-04-20 16:32 | 53.31974 | -2.34560 | 1050 ft | 90 kts | 55° |
| 2026-04-20 16:33 | 53.32369 | -2.33752 | 966 ft | 90 kts | 56° |
| 2026-04-20 16:33 | 53.32739 | -2.32959 | 891 ft | 81 kts | 56° |
| 2026-04-20 16:33 | 53.33074 | -2.32295 | 812 ft | 70 kts | 58° |
| 2026-04-20 16:33 | 53.33382 | -2.31641 | 681 ft | 70 kts | 56° |
| 2026-04-20 16:34 | 53.33666 | -2.31054 | 593 ft | 61 kts | 55° |
| 2026-04-20 16:34 | 53.33935 | -2.30490 | 539 ft | 63 kts | 53° |
| 2026-04-20 16:34 | 53.34214 | -2.29904 | 459 ft | 65 kts | 55° |
| 2026-04-20 16:34 | 53.34495 | -2.29318 | 354 ft | 65 kts | 52° |
| 2026-04-20 16:35 | 53.34776 | -2.28742 | 263 ft | 62 kts | 54° |
| 2026-04-20 16:35 | 53.35039 | -2.28195 | 237 ft | 57 kts | 54° |
| 2026-04-20 16:35 | 53.35273 | -2.27707 | 247 ft | 49 kts | 56° |
| 2026-04-20 16:35 | 53.35498 | -2.27238 | 267 ft | 65 kts | 52° |
| 2026-04-20 16:36 | 53.35786 | -2.26660 | 464 ft | 64 kts | 51° |
| 2026-04-20 16:36 | 53.35909 | -2.26017 | 597 ft | 66 kts | 122° |
| 2026-04-20 16:36 | 53.35542 | -2.25571 | 734 ft | 64 kts | 143° |
| 2026-04-20 16:36 | 53.35146 | -2.25238 | 859 ft | 65 kts | 169° |
| 2026-04-20 16:37 | 53.34757 | -2.25848 | 880 ft | 91 kts | 231° |
| 2026-04-20 16:37 | 53.34374 | -2.26717 | 897 ft | 95 kts | 233° |
| 2026-04-20 16:37 | 53.33986 | -2.27611 | 889 ft | 93 kts | 231° |
| 2026-04-20 16:37 | 53.33631 | -2.28475 | 908 ft | 89 kts | 235° |
| 2026-04-20 16:38 | 53.33297 | -2.29360 | 950 ft | 91 kts | 236° |
| 2026-04-20 16:38 | 53.32936 | -2.30250 | 926 ft | 94 kts | 234° |
| 2026-04-20 16:38 | 53.32623 | -2.31127 | 895 ft | 75 kts | 258° |
| 2026-04-20 16:38 | 53.32963 | -2.31415 | 635 ft | 70 kts | 33° |
| 2026-04-20 16:39 | 53.33275 | -2.30888 | 304 ft | 65 kts | 62° |
| 2026-04-20 16:39 | 53.33536 | -2.30366 | 190 ft | 47 kts | 54° |
| 2026-04-20 16:39 | 53.33767 | -2.29884 | 207 ft | 67 kts | 53° |
| 2026-04-20 16:39 | 53.34004 | -2.29266 | 423 ft | 61 kts | 84° |
| 2026-04-20 16:40 | 53.34004 | -2.28560 | 617 ft | 63 kts | 88° |
| 2026-04-20 16:40 | 53.34016 | -2.27864 | 765 ft | 60 kts | 91° |
| 2026-04-20 16:40 | 53.34019 | -2.27172 | 869 ft | 63 kts | 90° |
| 2026-04-20 16:40 | 53.34023 | -2.26416 | 991 ft | 66 kts | 92° |
| 2026-04-20 16:41 | 53.33691 | -2.26033 | 1027 ft | 83 kts | 193° |
| 2026-04-20 16:41 | 53.33505 | -2.26931 | 1021 ft | 94 kts | 302° |
| 2026-04-20 16:41 | 53.34020 | -2.27025 | 1068 ft | 74 kts | 11° |
| 2026-04-20 16:41 | 53.34285 | -2.27724 | 1139 ft | 87 kts | 275° |
| 2026-04-20 16:42 | 53.34381 | -2.28746 | 1255 ft | 92 kts | 290° |
| 2026-04-20 16:42 | 53.34790 | -2.29497 | 1326 ft | 89 kts | 329° |
| 2026-04-20 16:42 | 53.35309 | -2.30065 | 1340 ft | 89 kts | 331° |
| 2026-04-20 16:42 | 53.35835 | -2.30615 | 1373 ft | 89 kts | 332° |
| 2026-04-20 16:43 | 53.36369 | -2.31169 | 1393 ft | 93 kts | 331° |
| 2026-04-20 16:43 | 53.36927 | -2.31734 | 1480 ft | 91 kts | 333° |
| 2026-04-20 16:43 | 53.37491 | -2.32242 | 1525 ft | 92 kts | 340° |
| 2026-04-20 16:43 | 53.38070 | -2.32697 | 1559 ft | 93 kts | 339° |
| 2026-04-20 16:44 | 53.38651 | -2.33169 | 1624 ft | 94 kts | 340° |
| 2026-04-20 16:44 | 53.39243 | -2.33614 | 1683 ft | 92 kts | 343° |
| 2026-04-20 16:44 | 53.39839 | -2.34021 | 1761 ft | 92 kts | 341° |
| 2026-04-20 16:44 | 53.40441 | -2.34412 | 1760 ft | 97 kts | 343° |
| 2026-04-20 16:45 | 53.41085 | -2.34789 | 1712 ft | 98 kts | 346° |
| 2026-04-20 16:45 | 53.41728 | -2.35156 | 1709 ft | 97 kts | 346° |
| 2026-04-20 16:45 | 53.42361 | -2.35521 | 1730 ft | 97 kts | 345° |
| 2026-04-20 16:45 | 53.43012 | -2.35875 | 1753 ft | 99 kts | 348° |
| 2026-04-20 16:46 | 53.43658 | -2.36320 | 1685 ft | 101 kts | 337° |
| 2026-04-20 16:46 | 53.44275 | -2.36854 | 1678 ft | 99 kts | 339° |
| 2026-04-20 16:46 | 53.44911 | -2.37327 | 1606 ft | 106 kts | 340° |
| 2026-04-20 16:46 | 53.45595 | -2.37806 | 1492 ft | 106 kts | 343° |
| 2026-04-20 16:47 | 53.46284 | -2.38205 | 1366 ft | 103 kts | 344° |
| 2026-04-20 16:47 | 53.46969 | -2.38598 | 1252 ft | 105 kts | 343° |
| 2026-04-20 16:47 | 53.47618 | -2.39109 | 1192 ft | 108 kts | 317° |
| 2026-04-20 16:47 | 53.47715 | -2.40203 | 1028 ft | 99 kts | 231° |
| 2026-04-20 16:48 | 53.47158 | -2.40407 | 834 ft | 76 kts | 168° |
| 2026-04-20 16:48 | 53.46632 | -2.40379 | 663 ft | 75 kts | 182° |
| 2026-04-20 16:48 | 53.46304 | -2.40084 | 555 ft | 50 kts | 104° |
| 2026-04-20 16:48 | 53.46309 | -2.39472 | 481 ft | 54 kts | 56° |
| 2026-04-20 16:49 | 53.46669 | -2.39118 | 280 ft | 62 kts | 15° |
| 2026-04-20 16:49 | 53.47062 | -2.38932 | 72 ft | 52 kts | 17° |
| 2026-04-20 16:49 | 53.47428 | -2.38767 | 136 ft | 60 kts | 18° |
| 2026-04-20 16:49 | 53.47824 | -2.38655 | 354 ft | 61 kts | 351° |
| 2026-04-20 16:50 | 53.47925 | -2.39329 | 553 ft | 72 kts | 259° |
| 2026-04-20 16:50 | 53.47827 | -2.40256 | 676 ft | 82 kts | 257° |
| 2026-04-20 16:50 | 53.47562 | -2.40915 | 873 ft | 62 kts | 183° |
| 2026-04-20 16:50 | 53.47146 | -2.40723 | 743 ft | 64 kts | 155° |
| 2026-04-20 16:51 | 53.46746 | -2.40409 | 576 ft | 60 kts | 139° |
| 2026-04-20 16:51 | 53.46626 | -2.39798 | 346 ft | 64 kts | 81° |
| 2026-04-20 16:51 | 53.46695 | -2.39217 | 191 ft | 48 kts | 44° |
| 2026-04-20 16:51 | 53.46874 | -2.39027 | 81 ft | 41 kts | 37° |
| 2026-04-20 16:52 | 53.47026 | -2.38933 | 74 ft | 11 kts | 66° |
| 2026-04-20 16:52 | 53.47032 | -2.38895 | 73 ft | 0 kts | 78° |
| 2026-04-20 16:54 | 53.47117 | -2.38717 | 66 ft | 0 kts | 354° |
| 2026-04-20 16:56 | 53.47127 | -2.38725 | 70 ft | 6 kts | 313° |
| 2026-04-20 16:56 | 53.47085 | -2.38835 | 71 ft | 16 kts | 208° |
| 2026-04-20 16:56 | 53.46998 | -2.38856 | 73 ft | 8 kts | 202° |
| 2026-04-20 16:56 | 53.46975 | -2.38924 | 73 ft | 10 kts | 255° |
| 2026-04-20 16:57 | 53.46971 | -2.38966 | 72 ft | 0 kts | 289° |
| 2026-04-20 16:57 | 53.46975 | -2.38972 | 71 ft | 2 kts | 344° |
| 2026-04-20 16:57 | 53.46980 | -2.38972 | 71 ft | 1 kts | 7° |
| 2026-04-20 16:57 | 53.46998 | -2.38964 | 67 ft | 18 kts | 21° |
| 2026-04-20 16:58 | 53.47286 | -2.38831 | 75 ft | 63 kts | 20° |
| 2026-04-20 16:58 | 53.47722 | -2.38646 | 284 ft | 62 kts | 7° |
| 2026-04-20 16:58 | 53.48032 | -2.39186 | 414 ft | 79 kts | 296° |
| 2026-04-20 16:58 | 53.48097 | -2.40002 | 670 ft | 74 kts | 223° |
| 2026-04-20 16:59 | 53.47623 | -2.40231 | 885 ft | 70 kts | 180° |
| 2026-04-20 16:59 | 53.47171 | -2.40290 | 1127 ft | 62 kts | 157° |
| 2026-04-20 16:59 | 53.47081 | -2.39736 | 1282 ft | 64 kts | 73° |
| 2026-04-20 16:59 | 53.47271 | -2.38982 | 1439 ft | 74 kts | 69° |
| 2026-04-20 17:00 | 53.47970 | -2.39479 | 1710 ft | 85 kts | 254° |
| 2026-04-20 17:00 | 53.47768 | -2.40437 | 1816 ft | 89 kts | 244° |
| 2026-04-20 17:00 | 53.47373 | -2.41103 | 1832 ft | 87 kts | 165° |
| 2026-04-20 17:01 | 53.47135 | -2.40292 | 1801 ft | 83 kts | 82° |
| 2026-04-20 17:01 | 53.47348 | -2.39426 | 1638 ft | 98 kts | 40° |
| 2026-04-20 17:01 | 53.47928 | -2.39938 | 1408 ft | 110 kts | 304° |
| 2026-04-20 17:01 | 53.48218 | -2.41017 | 1455 ft | 92 kts | 256° |
| 2026-04-20 17:02 | 53.47851 | -2.41833 | 1440 ft | 88 kts | 218° |
| 2026-04-20 17:02 | 53.47400 | -2.42520 | 1457 ft | 83 kts | 202° |
| 2026-04-20 17:02 | 53.46972 | -2.42282 | 1493 ft | 72 kts | 105° |
| 2026-04-20 17:02 | 53.47284 | -2.41582 | 1412 ft | 92 kts | 16° |
| 2026-04-20 17:03 | 53.47939 | -2.41631 | 1332 ft | 94 kts | 1° |
| 2026-04-20 17:03 | 53.48584 | -2.41830 | 1344 ft | 93 kts | 353° |
| 2026-04-20 17:03 | 53.49182 | -2.41948 | 1422 ft | 80 kts | 20° |
| 2026-04-20 17:03 | 53.49432 | -2.41291 | 1395 ft | 73 kts | 110° |
| 2026-04-20 17:04 | 53.49088 | -2.40639 | 1324 ft | 77 kts | 115° |
| 2026-04-20 17:04 | 53.48847 | -2.39831 | 1330 ft | 77 kts | 135° |
| 2026-04-20 17:04 | 53.48490 | -2.39821 | 1313 ft | 91 kts | 202° |
| 2026-04-20 17:04 | 53.47964 | -2.40554 | 1155 ft | 100 kts | 216° |
| 2026-04-20 17:05 | 53.47460 | -2.41344 | 1130 ft | 98 kts | 217° |
| 2026-04-20 17:05 | 53.47032 | -2.42153 | 1205 ft | 88 kts | 242° |
| 2026-04-20 17:05 | 53.47247 | -2.43005 | 1273 ft | 87 kts | 348° |
| 2026-04-20 17:05 | 53.47709 | -2.42667 | 1323 ft | 73 kts | 73° |
| 2026-04-20 17:06 | 53.47759 | -2.41762 | 1214 ft | 82 kts | 90° |
| 2026-04-20 17:06 | 53.47825 | -2.40808 | 1123 ft | 85 kts | 70° |
| 2026-04-20 17:06 | 53.48195 | -2.40099 | 1142 ft | 87 kts | 15° |
| 2026-04-20 17:06 | 53.48605 | -2.40737 | 1100 ft | 97 kts | 268° |
| 2026-04-20 17:07 | 53.48421 | -2.41757 | 1160 ft | 84 kts | 236° |
| 2026-04-20 17:07 | 53.47992 | -2.41864 | 1161 ft | 70 kts | 124° |
| 2026-04-20 17:07 | 53.48046 | -2.41058 | 1132 ft | 78 kts | 73° |
| 2026-04-20 17:07 | 53.48244 | -2.40228 | 1143 ft | 75 kts | 72° |
| 2026-04-20 17:08 | 53.48438 | -2.39462 | 1217 ft | 70 kts | 70° |
| 2026-04-20 17:08 | 53.48364 | -2.38700 | 1313 ft | 71 kts | 137° |
| 2026-04-20 17:08 | 53.47870 | -2.38822 | 1334 ft | 92 kts | 223° |
| 2026-04-20 17:08 | 53.47857 | -2.39900 | 1263 ft | 100 kts | 310° |
| 2026-04-20 17:09 | 53.48412 | -2.40511 | 1239 ft | 92 kts | 333° |
| 2026-04-20 17:09 | 53.48824 | -2.40148 | 1280 ft | 76 kts | 82° |
| 2026-04-20 17:09 | 53.48629 | -2.39309 | 1214 ft | 87 kts | 123° |
| 2026-04-20 17:09 | 53.48223 | -2.38539 | 1162 ft | 87 kts | 128° |
| 2026-04-20 17:10 | 53.47821 | -2.37760 | 1163 ft | 88 kts | 129° |
| 2026-04-20 17:10 | 53.47422 | -2.37014 | 1191 ft | 85 kts | 129° |
| 2026-04-20 17:10 | 53.47021 | -2.36280 | 1176 ft | 86 kts | 131° |
| 2026-04-20 17:10 | 53.46601 | -2.35554 | 1172 ft | 86 kts | 132° |
| 2026-04-20 17:11 | 53.46178 | -2.34860 | 1170 ft | 85 kts | 133° |
| 2026-04-20 17:11 | 53.45754 | -2.34186 | 1194 ft | 83 kts | 133° |
| 2026-04-20 17:11 | 53.45337 | -2.33548 | 1230 ft | 81 kts | 135° |
| 2026-04-20 17:11 | 53.44913 | -2.32926 | 1265 ft | 81 kts | 136° |
| 2026-04-20 17:12 | 53.44483 | -2.32309 | 1274 ft | 83 kts | 137° |
| 2026-04-20 17:12 | 53.44071 | -2.31626 | 1250 ft | 84 kts | 121° |
| 2026-04-20 17:12 | 53.43777 | -2.30809 | 1308 ft | 78 kts | 121° |
| 2026-04-20 17:12 | 53.43411 | -2.30199 | 1392 ft | 73 kts | 154° |
| 2026-04-20 17:13 | 53.43381 | -2.29637 | 1481 ft | 74 kts | 28° |
| 2026-04-20 17:13 | 53.43849 | -2.30053 | 1420 ft | 96 kts | 294° |
| 2026-04-20 17:13 | 53.43646 | -2.30963 | 1337 ft | 91 kts | 187° |
| 2026-04-20 17:13 | 53.43038 | -2.30863 | 1284 ft | 89 kts | 165° |
| 2026-04-20 17:14 | 53.42431 | -2.30727 | 1209 ft | 88 kts | 166° |
| 2026-04-20 17:14 | 53.41841 | -2.30619 | 1201 ft | 83 kts | 167° |
| 2026-04-20 17:14 | 53.41252 | -2.30695 | 1197 ft | 87 kts | 178° |
| 2026-04-20 17:14 | 53.40635 | -2.30832 | 1162 ft | 89 kts | 182° |
| 2026-04-20 17:15 | 53.40027 | -2.30946 | 1189 ft | 87 kts | 181° |
| 2026-04-20 17:15 | 53.39429 | -2.31046 | 1193 ft | 86 kts | 178° |
| 2026-04-20 17:15 | 53.38821 | -2.31100 | 1162 ft | 87 kts | 175° |
| 2026-04-20 17:15 | 53.38227 | -2.31160 | 1182 ft | 88 kts | 176° |
| 2026-04-20 17:16 | 53.37620 | -2.31222 | 1205 ft | 89 kts | 178° |
| 2026-04-20 17:16 | 53.36994 | -2.31267 | 1162 ft | 90 kts | 179° |
| 2026-04-20 17:16 | 53.36363 | -2.31319 | 1168 ft | 90 kts | 179° |
| 2026-04-20 17:16 | 53.35732 | -2.31384 | 1116 ft | 90 kts | 176° |
| 2026-04-20 17:17 | 53.35124 | -2.31444 | 1129 ft | 87 kts | 174° |
| 2026-04-20 17:17 | 53.34545 | -2.31311 | 1098 ft | 82 kts | 157° |
| 2026-04-20 17:17 | 53.33992 | -2.31066 | 1049 ft | 84 kts | 159° |
| 2026-04-20 17:17 | 53.33408 | -2.30927 | 1047 ft | 85 kts | 175° |
| 2026-04-20 17:18 | 53.32816 | -2.30993 | 1185 ft | 85 kts | 175° |
| 2026-04-20 17:18 | 53.32214 | -2.31067 | 1203 ft | 88 kts | 178° |
| 2026-04-20 17:18 | 53.31586 | -2.31110 | 1174 ft | 92 kts | 175° |
| 2026-04-20 17:18 | 53.30955 | -2.31136 | 1210 ft | 89 kts | 176° |
| 2026-04-20 17:19 | 53.30330 | -2.31208 | 1217 ft | 92 kts | 180° |
| 2026-04-20 17:19 | 53.29682 | -2.31285 | 1222 ft | 94 kts | 176° |
| 2026-04-20 17:19 | 53.29036 | -2.31274 | 1246 ft | 92 kts | 177° |
| 2026-04-20 17:19 | 53.28408 | -2.31303 | 1274 ft | 89 kts | 176° |
| 2026-04-20 17:20 | 53.27795 | -2.31291 | 1286 ft | 88 kts | 175° |
| 2026-04-20 17:20 | 53.27179 | -2.31285 | 1325 ft | 90 kts | 176° |
| 2026-04-20 17:20 | 53.26556 | -2.31296 | 1375 ft | 89 kts | 174° |
| 2026-04-20 17:20 | 53.25937 | -2.31307 | 1370 ft | 89 kts | 175° |
| 2026-04-20 17:21 | 53.25310 | -2.31257 | 1377 ft | 91 kts | 171° |
| 2026-04-20 17:21 | 53.24671 | -2.31188 | 1368 ft | 91 kts | 172° |
| 2026-04-20 17:21 | 53.24054 | -2.31188 | 1436 ft | 86 kts | 175° |
| 2026-04-20 17:21 | 53.23436 | -2.31204 | 1439 ft | 91 kts | 177° |
| 2026-04-20 17:22 | 53.22864 | -2.31633 | 1386 ft | 101 kts | 218° |
| 2026-04-20 17:22 | 53.22301 | -2.32379 | 1260 ft | 103 kts | 214° |
| 2026-04-20 17:22 | 53.21737 | -2.33079 | 1142 ft | 100 kts | 213° |
| 2026-04-20 17:22 | 53.21192 | -2.33766 | 1067 ft | 98 kts | 213° |
| 2026-04-20 17:23 | 53.20642 | -2.34408 | 962 ft | 98 kts | 211° |
| 2026-04-20 17:23 | 53.20081 | -2.35045 | 898 ft | 97 kts | 212° |
| 2026-04-20 17:23 | 53.19474 | -2.35302 | 867 ft | 88 kts | 160° |
| 2026-04-20 17:23 | 53.18904 | -2.35073 | 1018 ft | 80 kts | 158° |
| 2026-04-20 17:24 | 53.18367 | -2.34809 | 1092 ft | 82 kts | 159° |
| 2026-04-20 17:24 | 53.17813 | -2.34510 | 1102 ft | 84 kts | 154° |
| 2026-04-20 17:24 | 53.17255 | -2.34160 | 1077 ft | 89 kts | 153° |
| 2026-04-20 17:24 | 53.16668 | -2.33820 | 1065 ft | 90 kts | 158° |
| 2026-04-20 17:25 | 53.16064 | -2.33496 | 1063 ft | 92 kts | 156° |
| 2026-04-20 17:25 | 53.15495 | -2.33041 | 1008 ft | 92 kts | 127° |
| 2026-04-20 17:25 | 53.15138 | -2.32171 | 928 ft | 93 kts | 128° |
| 2026-04-20 17:25 | 53.14507 | -2.32042 | 821 ft | 109 kts | 203° |
| 2026-04-20 17:26 | 53.14299 | -2.33061 | 871 ft | 98 kts | 310° |
| 2026-04-20 17:26 | 53.14797 | -2.32921 | 751 ft | 86 kts | 76° |
| 2026-04-20 17:26 | 53.14407 | -2.32303 | 689 ft | 98 kts | 173° |
| 2026-04-20 17:26 | 53.13930 | -2.31849 | 635 ft | 73 kts | 91° |
| 2026-04-20 17:27 | 53.14177 | -2.31251 | 661 ft | 54 kts | 49° |
| 2026-04-20 17:27 | 53.14454 | -2.31473 | 406 ft | 75 kts | 248° |
| 2026-04-20 17:27 | 53.14114 | -2.31888 | 276 ft | 42 kts | 206° |
| 2026-04-20 17:27 | 53.13992 | -2.32006 | 279 ft | 6 kts | 272° |
| 2026-04-20 17:28 | 53.14047 | -2.31964 | 273 ft | 15 kts | 36° |
| 2026-04-20 17:28 | 53.14112 | -2.31951 | 275 ft | 9 kts | 349° |